Time;durP1;ratioP1;P1;durP2;ratioP2;P2;SDS_P1;SDS_P2;PMS_P1;PMS_P2;Temp;Humidity;BMP_temperature;BMP_pressure;BME280_temperature;BME280_humidity;BME280_pressure;Samples;Min_cycle;Max_cycle;Signal;HPM_P1;HPM_P2
2022/07/22 00:01:51;;;;;;;17.03;15.30;;;;;;;;;;5030916;28;20582;-87
2022/07/22 00:04:55;;;;;;;16.37;14.20;;;;;;;;;;5022614;28;20194;-87
2022/07/22 00:07:59;;;;;;;17.43;15.73;;;;;;;;;;5061350;28;20194;-87
2022/07/22 00:11:05;;;;;;;19.07;14.73;;;;;;;;;;5033735;28;20202;-87
2022/07/22 00:14:08;;;;;;;17.70;14.73;;;;;;;;;;5038411;28;20210;-87
2022/07/22 00:17:13;;;;;;;16.63;14.83;;;;;;;;;;5038577;28;20217;-87
2022/07/22 00:20:16;;;;;;;19.03;17.23;;;;;;;;;;5050132;28;20186;-87
2022/07/22 00:23:21;;;;;;;18.20;14.97;;;;;;;;;;5041495;28;20221;-87
2022/07/22 00:26:25;;;;;;;16.83;14.80;;;;;;;;;;5045066;28;20210;-87
2022/07/22 00:29:29;;;;;;;17.73;15.40;;;;;;;;;;5044951;28;20194;-87
2022/07/22 00:32:33;;;;;;;18.60;15.10;;;;;;;;;;5056864;28;20703;-87
2022/07/22 00:35:37;;;;;;;16.77;14.97;;;;;;;;;;5067801;28;20194;-87
2022/07/22 00:38:41;;;;;;;18.80;15.37;;;;;;;;;;5045570;28;20214;-87
2022/07/22 00:41:45;;;;;;;16.67;14.83;;;;;;;;;;5045471;28;20222;-87
2022/07/22 00:44:50;;;;;;;16.60;14.83;;;;;;;;;;5036281;28;20657;-87
2022/07/22 00:47:55;;;;;;;16.67;14.97;;;;;;;;;;5025438;28;20187;-87
2022/07/22 00:50:59;;;;;;;17.10;14.87;;;;;;;;;;5054882;28;20199;-87
2022/07/22 00:54:04;;;;;;;16.33;14.53;;;;;;;;;;5045790;28;20194;-87
2022/07/22 00:57:08;;;;;;;16.87;15.17;;;;;;;;;;5044439;28;20191;-87
2022/07/22 01:00:17;;;;;;;17.50;15.77;;;;;;;;;;5067604;28;20198;-87
2022/07/22 01:03:20;;;;;;;19.03;14.60;;;;;;;;;;5044523;28;20222;-87
2022/07/22 01:06:24;;;;;;;19.27;16.63;;;;;;;;;;5044257;28;20592;-87
2022/07/22 01:09:29;;;;;;;19.23;15.77;;;;;;;;;;5067597;28;20182;-86
2022/07/22 01:12:33;;;;;;;17.13;15.37;;;;;;;;;;5056163;28;20226;-87
2022/07/22 01:15:37;;;;;;;16.97;15.13;;;;;;;;;;5055861;28;20190;-86
2022/07/22 01:18:41;;;;;;;16.67;14.90;;;;;;;;;;5035692;28;20219;-87
2022/07/22 01:21:46;;;;;;;17.13;15.33;;;;;;;;;;5053420;28;20239;-87
2022/07/22 01:24:51;;;;;;;20.23;17.20;;;;;;;;;;5051502;28;20198;-87
2022/07/22 01:27:55;;;;;;;17.73;15.87;;;;;;;;;;5044728;28;20657;-87
2022/07/22 01:30:59;;;;;;;18.27;15.70;;;;;;;;;;5057964;28;20213;-87
2022/07/22 01:34:04;;;;;;;18.90;17.00;;;;;;;;;;5043988;28;20202;-87
2022/07/22 01:37:12;;;;;;;20.73;18.53;;;;;;;;;;5033346;28;20195;-87
2022/07/22 01:40:16;;;;;;;19.57;17.57;;;;;;;;;;5057295;28;20262;-87
2022/07/22 01:43:20;;;;;;;19.37;17.17;;;;;;;;;;5048256;28;20222;-87
2022/07/22 01:46:26;;;;;;;20.07;17.87;;;;;;;;;;5052895;28;20573;-86
2022/07/22 01:49:31;;;;;;;19.93;16.83;;;;;;;;;;5022329;28;20179;-87
2022/07/22 01:52:36;;;;;;;19.77;17.53;;;;;;;;;;5032901;28;20226;-87
2022/07/22 01:55:41;;;;;;;20.87;17.90;;;;;;;;;;5037910;28;20206;-86
2022/07/22 01:58:45;;;;;;;22.37;18.50;;;;;;;;;;5041151;28;20218;-87
2022/07/22 02:01:51;;;;;;;21.30;18.83;;;;;;;;;;5041036;28;20222;-87
2022/07/22 02:04:55;;;;;;;21.70;19.07;;;;;;;;;;5064287;28;20206;-87
2022/07/22 02:08:01;;;;;;;20.40;18.30;;;;;;;;;;5031818;28;20195;-87
2022/07/22 02:11:09;;;;;;;19.30;17.30;;;;;;;;;;5043514;28;20551;-87
2022/07/22 02:14:20;;;;;;;24.20;18.23;;;;;;;;;;5022387;28;20286;-87
2022/07/22 02:17:27;;;;;;;19.10;16.80;;;;;;;;;;5058457;28;20681;-86
2022/07/22 02:20:31;;;;;;;19.03;16.90;;;;;;;;;;5040764;28;20178;-87
2022/07/22 02:23:37;;;;;;;19.83;17.17;;;;;;;;;;5040221;28;20218;-87
2022/07/22 02:26:42;;;;;;;21.97;18.40;;;;;;;;;;5041253;28;20198;-87
2022/07/22 02:29:50;;;;;;;20.50;16.67;;;;;;;;;;5043559;28;20205;-87
2022/07/22 02:32:54;;;;;;;20.10;17.80;;;;;;;;;;5043436;28;20222;-87
2022/07/22 02:35:59;;;;;;;22.93;19.00;;;;;;;;;;5034650;28;20203;-87
2022/07/22 02:39:04;;;;;;;22.17;18.20;;;;;;;;;;5042828;28;20223;-87
2022/07/22 02:42:09;;;;;;;25.40;20.70;;;;;;;;;;5049499;28;20226;-87
2022/07/22 02:45:14;;;;;;;22.23;19.40;;;;;;;;;;5040633;28;20188;-87
2022/07/22 02:48:18;;;;;;;22.63;19.47;;;;;;;;;;5046285;28;20191;-87
2022/07/22 02:51:23;;;;;;;23.53;19.43;;;;;;;;;;5071282;28;20182;-86
2022/07/22 02:54:28;;;;;;;25.93;19.27;;;;;;;;;;5046868;28;20206;-87
2022/07/22 02:57:32;;;;;;;21.27;19.17;;;;;;;;;;5041966;28;20596;-87
2022/07/22 03:00:39;;;;;;;21.60;19.40;;;;;;;;;;5038576;28;20562;-86
2022/07/22 03:03:44;;;;;;;19.77;17.70;;;;;;;;;;5049310;28;20199;-82
2022/07/22 03:06:48;;;;;;;17.87;16.03;;;;;;;;;;5083901;28;20190;-81
2022/07/22 03:09:57;;;;;;;20.30;17.87;;;;;;;;;;5050433;28;20199;-82
2022/07/22 03:13:02;;;;;;;17.93;16.13;;;;;;;;;;5054320;28;20229;-80
2022/07/22 03:16:06;;;;;;;17.93;15.53;;;;;;;;;;5055297;28;20201;-80
2022/07/22 03:19:12;;;;;;;19.70;16.27;;;;;;;;;;5066433;28;20209;-80
2022/07/22 03:22:17;;;;;;;17.47;15.77;;;;;;;;;;5054706;28;20220;-80
2022/07/22 03:25:22;;;;;;;17.90;15.20;;;;;;;;;;5054407;28;20193;-80
2022/07/22 03:28:27;;;;;;;17.77;15.33;;;;;;;;;;5077402;28;20182;-81
2022/07/22 03:31:31;;;;;;;18.90;15.93;;;;;;;;;;5077124;28;20185;-80
2022/07/22 03:34:36;;;;;;;16.53;14.83;;;;;;;;;;5065296;28;20186;-80
2022/07/22 03:37:43;;;;;;;15.90;14.30;;;;;;;;;;5034411;28;20191;-80
2022/07/22 03:40:48;;;;;;;18.70;15.07;;;;;;;;;;5067512;28;20194;-80
2022/07/22 03:43:52;;;;;;;20.90;14.53;;;;;;;;;;5043999;28;20183;-80
2022/07/22 03:46:57;;;;;;;17.77;15.27;;;;;;;;;;5055371;28;20191;-80
2022/07/22 03:50:03;;;;;;;15.97;14.20;;;;;;;;;;5044118;28;20178;-80
2022/07/22 03:53:07;;;;;;;17.03;14.47;;;;;;;;;;5055270;28;20226;-80
2022/07/22 03:56:16;;;;;;;17.37;14.60;;;;;;;;;;5055209;28;20187;-80
2022/07/22 03:59:21;;;;;;;16.30;14.47;;;;;;;;;;5065567;28;20210;-80
2022/07/22 04:02:25;;;;;;;17.37;14.87;;;;;;;;;;5054928;28;20229;-80
2022/07/22 04:05:29;;;;;;;16.63;14.93;;;;;;;;;;5057527;28;20201;-80
2022/07/22 04:08:34;;;;;;;16.47;14.77;;;;;;;;;;5075099;28;20209;-80
2022/07/22 04:11:40;;;;;;;16.13;14.13;;;;;;;;;;5051827;28;20226;-80
2022/07/22 04:14:44;;;;;;;19.57;15.37;;;;;;;;;;5074811;28;20185;-80
2022/07/22 04:17:48;;;;;;;15.17;13.73;;;;;;;;;;5073972;28;20189;-80
2022/07/22 04:20:53;;;;;;;19.50;15.20;;;;;;;;;;5073282;28;20214;-80
2022/07/22 04:23:59;;;;;;;18.03;15.13;;;;;;;;;;5084424;28;20675;-80
2022/07/22 04:27:06;;;;;;;15.77;14.07;;;;;;;;;;5073199;28;20194;-80
2022/07/22 04:30:13;;;;;;;16.30;14.60;;;;;;;;;;5044694;28;20253;-81
2022/07/22 04:33:19;;;;;;;16.27;14.57;;;;;;;;;;5053145;28;20222;-80
2022/07/22 04:36:25;;;;;;;16.23;14.53;;;;;;;;;;5054945;28;20204;-80
2022/07/22 04:39:30;;;;;;;17.33;14.53;;;;;;;;;;5052919;28;20235;-80
2022/07/22 04:42:36;;;;;;;15.70;13.70;;;;;;;;;;5030964;28;20222;-80
2022/07/22 04:45:40;;;;;;;16.37;14.77;;;;;;;;;;5030923;28;20186;-80
2022/07/22 04:48:45;;;;;;;16.87;13.93;;;;;;;;;;5043667;28;20199;-80
2022/07/22 04:51:50;;;;;;;16.20;13.80;;;;;;;;;;5031722;28;20226;-80
2022/07/22 04:55:04;;;;;;;16.33;14.10;;;;;;;;;;5043283;28;20194;-80
2022/07/22 04:58:09;;;;;;;15.67;14.13;;;;;;;;;;5054313;28;20191;-80
2022/07/22 05:01:13;;;;;;;20.53;13.83;;;;;;;;;;5053160;28;20174;-81
2022/07/22 05:04:19;;;;;;;20.23;15.50;;;;;;;;;;5053534;28;20183;-80
2022/07/22 05:07:24;;;;;;;16.30;14.60;;;;;;;;;;5040569;28;20202;-80
2022/07/22 05:10:28;;;;;;;16.17;13.97;;;;;;;;;;5032340;28;20174;-80
2022/07/22 05:13:32;;;;;;;16.97;14.47;;;;;;;;;;5061140;28;20724;-80
2022/07/22 05:16:37;;;;;;;17.20;14.60;;;;;;;;;;5053343;28;20205;-80
2022/07/22 05:19:42;;;;;;;16.77;14.27;;;;;;;;;;5065251;28;20238;-80
2022/07/22 05:22:49;;;;;;;16.83;13.73;;;;;;;;;;5053590;28;20225;-80
2022/07/22 05:25:58;;;;;;;16.47;12.80;;;;;;;;;;5057147;28;20191;-80
2022/07/22 05:29:03;;;;;;;16.77;13.57;;;;;;;;;;5056673;28;20186;-80
2022/07/22 05:32:08;;;;;;;15.20;13.60;;;;;;;;;;5076435;28;20217;-80
2022/07/22 05:35:12;;;;;;;18.23;15.87;;;;;;;;;;5053308;28;20182;-80
2022/07/22 05:38:16;;;;;;;18.60;16.07;;;;;;;;;;5075890;28;20572;-80
2022/07/22 05:41:21;;;;;;;16.93;15.23;;;;;;;;;;5076597;28;20231;-80
2022/07/22 05:44:26;;;;;;;17.23;15.23;;;;;;;;;;5065968;28;20202;-80
2022/07/22 05:47:30;;;;;;;22.30;15.83;;;;;;;;;;5065636;28;20202;-81
2022/07/22 05:50:35;;;;;;;16.20;14.50;;;;;;;;;;5053274;28;20197;-80
2022/07/22 05:53:41;;;;;;;18.10;15.17;;;;;;;;;;5075828;28;20222;-80
2022/07/22 05:56:45;;;;;;;19.73;17.20;;;;;;;;;;5064209;28;20182;-81
2022/07/22 05:59:49;;;;;;;18.90;15.20;;;;;;;;;;5062911;28;20732;-81
2022/07/22 06:02:54;;;;;;;20.20;17.80;;;;;;;;;;5063182;28;20226;-85
2022/07/22 06:06:01;;;;;;;20.33;18.17;;;;;;;;;;5040816;28;20198;-85
2022/07/22 06:09:05;;;;;;;20.67;18.53;;;;;;;;;;5041211;28;20202;-85
2022/07/22 06:12:09;;;;;;;24.70;20.53;;;;;;;;;;5051879;28;20234;-86
2022/07/22 06:15:13;;;;;;;21.27;19.00;;;;;;;;;;5064011;28;20190;-86
2022/07/22 06:18:18;;;;;;;25.17;21.50;;;;;;;;;;5041116;28;20216;-86
2022/07/22 06:21:23;;;;;;;23.37;20.87;;;;;;;;;;5062927;28;20214;-86
2022/07/22 06:24:27;;;;;;;24.33;21.27;;;;;;;;;;5032325;28;20199;-85
2022/07/22 06:27:32;;;;;;;25.67;20.30;;;;;;;;;;5021794;28;20191;-86
2022/07/22 06:30:38;;;;;;;23.80;21.37;;;;;;;;;;5021960;28;20187;-85
2022/07/22 06:33:42;;;;;;;25.10;22.40;;;;;;;;;;5038595;28;20282;-85
2022/07/22 06:36:46;;;;;;;26.27;23.47;;;;;;;;;;5051666;28;20194;-87
2022/07/22 06:39:51;;;;;;;28.17;23.13;;;;;;;;;;5062678;28;20234;-87
2022/07/22 06:43:03;;;;;;;30.40;21.83;;;;;;;;;;5044041;28;20223;-87
2022/07/22 06:46:45;;;;;;;21.77;19.53;;;;;;;;;;5062534;28;20206;-82
2022/07/22 06:49:49;;;;;;;24.73;20.53;;;;;;;;;;5039875;28;20198;-83
2022/07/22 06:52:54;;;;;;;18.80;16.80;;;;;;;;;;5039343;28;20226;-83
2022/07/22 06:55:58;;;;;;;22.97;19.90;;;;;;;;;;5062882;28;20198;-87
2022/07/22 06:59:02;;;;;;;21.40;19.20;;;;;;;;;;5051336;28;20190;-86
2022/07/22 07:02:06;;;;;;;21.67;19.20;;;;;;;;;;5041711;28;20223;-86
2022/07/22 07:05:10;;;;;;;19.90;16.50;;;;;;;;;;5020654;28;20183;-87
2022/07/22 07:08:14;;;;;;;19.43;16.30;;;;;;;;;;5019856;28;20187;-86
2022/07/22 07:11:19;;;;;;;16.40;14.80;;;;;;;;;;5029154;28;20199;-86
2022/07/22 07:14:23;;;;;;;15.40;13.43;;;;;;;;;;5062302;28;20182;-87
2022/07/22 07:17:27;;;;;;;17.13;13.47;;;;;;;;;;5062810;28;20182;-86
2022/07/22 07:20:31;;;;;;;16.83;13.27;;;;;;;;;;5039391;28;20219;-87
2022/07/22 07:23:36;;;;;;;14.77;12.60;;;;;;;;;;5039622;28;20222;-87
2022/07/22 07:26:40;;;;;;;17.13;14.23;;;;;;;;;;5019460;28;20207;-87
2022/07/22 07:29:45;;;;;;;14.63;13.10;;;;;;;;;;5042519;28;20208;-87
2022/07/22 07:32:50;;;;;;;11.47;10.37;;;;;;;;;;5030737;28;20750;-87
2022/07/22 07:35:54;;;;;;;11.10;10.00;;;;;;;;;;5045140;28;20197;-87
2022/07/22 07:39:08;;;;;;;13.63;10.10;;;;;;;;;;5040734;28;20200;-87
2022/07/22 07:42:12;;;;;;;11.93;9.50;;;;;;;;;;5050726;28;20218;-87
2022/07/22 07:45:17;;;;;;;10.57;9.47;;;;;;;;;;5061563;28;20184;-87
2022/07/22 07:48:22;;;;;;;13.30;9.52;;;;;;;;;;5050289;28;20559;-87
2022/07/22 07:51:27;;;;;;;12.57;9.68;;;;;;;;;;5062045;28;20180;-88
2022/07/22 07:54:31;;;;;;;10.65;9.40;;;;;;;;;;5053588;28;20202;-86
2022/07/22 07:57:36;;;;;;;11.55;10.35;;;;;;;;;;5033553;28;20201;-87
2022/07/22 08:00:45;;;;;;;11.93;8.90;;;;;;;;;;5037575;28;20221;-87
2022/07/22 08:03:49;;;;;;;10.25;9.25;;;;;;;;;;5039860;28;20191;-87
2022/07/22 08:06:53;;;;;;;10.38;8.75;;;;;;;;;;5030184;28;20688;-87
2022/07/22 08:09:59;;;;;;;11.32;9.02;;;;;;;;;;5024777;28;20198;-87
2022/07/22 08:13:23;;;;;;;10.25;8.82;;;;;;;;;;5055978;28;20235;-87
2022/07/22 08:16:40;;;;;;;10.85;9.68;;;;;;;;;;5044585;28;20223;-87
2022/07/22 08:19:45;;;;;;;11.25;10.18;;;;;;;;;;5054152;28;20180;-87
2022/07/22 08:22:51;;;;;;;11.45;10.35;;;;;;;;;;5045607;28;20237;-88
2022/07/22 08:25:55;;;;;;;11.07;9.98;;;;;;;;;;5059593;28;20193;-87
2022/07/22 08:28:59;;;;;;;11.75;9.73;;;;;;;;;;5049215;28;20187;-87
2022/07/22 08:32:05;;;;;;;10.48;9.30;;;;;;;;;;5048319;28;20219;-88
2022/07/22 08:35:10;;;;;;;10.23;9.23;;;;;;;;;;5037145;28;20533;-87
2022/07/22 08:38:15;;;;;;;9.23;8.02;;;;;;;;;;5032282;28;20198;-88
2022/07/22 08:41:21;;;;;;;12.10;9.20;;;;;;;;;;5047413;28;20207;-88
2022/07/22 08:44:32;;;;;;;9.45;8.27;;;;;;;;;;5047923;28;20674;-87
2022/07/22 08:47:37;;;;;;;9.77;8.77;;;;;;;;;;5049382;28;20642;-87
2022/07/22 08:51:05;;;;;;;8.52;7.82;;;;;;;;;;5054420;28;20187;-87
2022/07/22 08:54:30;;;;;;;10.40;8.63;;;;;;;;;;5067968;28;20192;-88
2022/07/22 08:57:37;;;;;;;10.65;7.53;;;;;;;;;;5045500;28;20176;-87
2022/07/22 09:00:43;;;;;;;9.93;7.60;;;;;;;;;;5044004;28;20207;-87
2022/07/22 09:03:57;;;;;;;9.32;7.78;;;;;;;;;;5065759;28;20191;-87
2022/07/22 09:07:05;;;;;;;10.25;7.40;;;;;;;;;;5065630;28;20183;-87
2022/07/22 09:10:17;;;;;;;8.65;7.85;;;;;;;;;;5033335;28;20199;-87
2022/07/22 09:13:43;;;;;;;9.23;7.68;;;;;;;;;;5079074;23;20228;-87
2022/07/22 09:17:07;;;;;;;8.40;7.53;;;;;;;;;;5064072;28;20180;-87
2022/07/22 09:20:33;;;;;;;8.18;7.38;;;;;;;;;;5071713;28;20216;-86
2022/07/22 09:24:32;;;;;;;8.52;7.35;;;;;;;;;;5043019;28;20533;-86
2022/07/22 09:28:10;;;;;;;8.55;7.65;;;;;;;;;;5046443;28;20201;-86
2022/07/22 09:31:35;;;;;;;8.77;7.95;;;;;;;;;;5029078;28;20177;-86
2022/07/22 09:35:04;;;;;;;10.20;7.45;;;;;;;;;;5046096;28;20181;-86
2022/07/22 09:38:31;;;;;;;7.57;6.88;;;;;;;;;;5043854;28;20193;-87
2022/07/22 09:41:57;;;;;;;9.75;7.13;;;;;;;;;;5043638;28;20555;-86
2022/07/22 09:45:02;;;;;;;8.95;6.68;;;;;;;;;;5032732;28;20193;-87
2022/07/22 09:48:18;;;;;;;8.40;7.55;;;;;;;;;;5028134;28;20190;-87
2022/07/22 09:51:33;;;;;;;8.02;6.97;;;;;;;;;;5029321;28;20189;-87
2022/07/22 09:54:56;;;;;;;8.10;7.20;;;;;;;;;;5043278;28;20180;-87
2022/07/22 09:58:00;;;;;;;7.97;6.57;;;;;;;;;;5040191;28;20200;-87
2022/07/22 10:01:05;;;;;;;7.07;6.38;;;;;;;;;;5037216;28;20213;-86
2022/07/22 10:04:10;;;;;;;7.30;6.32;;;;;;;;;;5055449;28;20180;-85
2022/07/22 10:07:16;;;;;;;7.75;6.45;;;;;;;;;;5034440;28;20197;-86
2022/07/22 10:10:24;;;;;;;7.78;6.20;;;;;;;;;;5034683;28;20192;-86
2022/07/22 10:13:29;;;;;;;6.13;5.57;;;;;;;;;;5043026;28;20224;-86
2022/07/22 10:16:36;;;;;;;5.95;5.43;;;;;;;;;;5041073;28;20200;-85
2022/07/22 10:19:41;;;;;;;7.68;6.18;;;;;;;;;;5031187;28;20204;-87
2022/07/22 10:23:00;;;;;;;6.03;5.43;;;;;;;;;;5043084;28;20236;-87
2022/07/22 10:26:04;;;;;;;6.72;6.00;;;;;;;;;;5042920;28;20192;-86
2022/07/22 10:29:25;;;;;;;8.05;5.78;;;;;;;;;;5042455;28;20189;-87
2022/07/22 10:32:29;;;;;;;6.18;5.60;;;;;;;;;;5042772;28;20220;-87
2022/07/22 10:35:37;;;;;;;6.80;6.10;;;;;;;;;;5023148;28;20181;-87
2022/07/22 10:39:04;;;;;;;8.38;5.75;;;;;;;;;;5032021;28;20184;-87
2022/07/22 10:42:08;;;;;;;7.85;5.80;;;;;;;;;;5042357;28;20228;-87
2022/07/22 10:45:13;;;;;;;6.50;5.90;;;;;;;;;;5040327;28;20192;-87
2022/07/22 10:48:25;;;;;;;7.43;6.35;;;;;;;;;;5041242;28;20196;-88
2022/07/22 10:51:29;;;;;;;7.10;6.40;;;;;;;;;;5022915;28;20177;-88
2022/07/22 10:54:34;;;;;;;9.05;6.28;;;;;;;;;;5017187;28;20544;-88
2022/07/22 10:57:38;;;;;;;8.38;6.07;;;;;;;;;;5022733;28;20177;-87
2022/07/22 11:00:42;;;;;;;7.47;6.25;;;;;;;;;;5028948;28;20185;-87
2022/07/22 11:03:47;;;;;;;6.45;5.85;;;;;;;;;;5023386;28;20213;-87
2022/07/22 11:06:53;;;;;;;6.72;5.47;;;;;;;;;;5052837;28;20184;-86
2022/07/22 11:10:18;;;;;;;7.53;6.72;;;;;;;;;;5041574;28;20555;-85
2022/07/22 11:13:41;;;;;;;6.22;5.63;;;;;;;;;;5041779;28;20224;-89
2022/07/22 11:16:47;;;;;;;6.75;5.60;;;;;;;;;;5041854;28;20184;-88
2022/07/22 11:19:51;;;;;;;6.45;5.80;;;;;;;;;;5042175;28;20173;-86
2022/07/22 11:22:56;;;;;;;7.97;5.75;;;;;;;;;;5025709;28;20232;-85
2022/07/22 11:26:00;;;;;;;6.32;5.72;;;;;;;;;;5045219;28;20193;-85
2022/07/22 11:29:05;;;;;;;7.10;5.80;;;;;;;;;;5039892;28;20195;-85
2022/07/22 11:32:10;;;;;;;6.68;5.88;;;;;;;;;;5033190;28;20217;-85
2022/07/22 11:35:14;;;;;;;6.22;5.63;;;;;;;;;;5040188;28;20200;-86
2022/07/22 11:38:18;;;;;;;7.78;5.80;;;;;;;;;;5029151;28;20180;-84
2022/07/22 11:41:22;;;;;;;6.30;5.65;;;;;;;;;;5041426;28;20216;-86
2022/07/22 11:44:29;;;;;;;6.00;5.28;;;;;;;;;;5029754;28;20181;-86
2022/07/22 11:47:33;;;;;;;6.93;6.03;;;;;;;;;;5041348;28;20184;-85
2022/07/22 11:50:37;;;;;;;6.82;6.05;;;;;;;;;;5041264;28;20639;-88
2022/07/22 11:53:41;;;;;;;7.60;5.28;;;;;;;;;;5041363;28;20220;-85
2022/07/22 11:56:46;;;;;;;6.75;5.68;;;;;;;;;;5030256;28;20197;-85
2022/07/22 11:59:50;;;;;;;8.10;5.90;;;;;;;;;;5037665;28;20184;-85
2022/07/22 12:02:54;;;;;;;5.53;5.03;;;;;;;;;;5041581;28;20576;-85
2022/07/22 12:05:58;;;;;;;6.07;5.47;;;;;;;;;;5035065;28;20196;-85
2022/07/22 12:09:09;;;;;;;6.80;5.93;;;;;;;;;;5024959;28;20200;-85
2022/07/22 12:12:13;;;;;;;6.20;5.70;;;;;;;;;;5034502;28;20228;-85
2022/07/22 12:15:17;;;;;;;6.95;5.70;;;;;;;;;;5040896;28;20539;-85
2022/07/22 12:18:23;;;;;;;6.13;5.63;;;;;;;;;;5050098;28;20185;-84
2022/07/22 12:21:32;;;;;;;8.68;5.70;;;;;;;;;;5022496;28;20699;-85
2022/07/22 12:24:39;;;;;;;6.55;5.50;;;;;;;;;;5047337;28;20181;-86
2022/07/22 12:27:59;;;;;;;9.48;5.70;;;;;;;;;;5034575;28;20180;-86
2022/07/22 12:31:03;;;;;;;8.73;5.97;;;;;;;;;;5040815;28;20647;-86
2022/07/22 12:34:07;;;;;;;6.18;5.57;;;;;;;;;;5040801;28;20184;-86
2022/07/22 12:37:20;;;;;;;5.38;4.88;;;;;;;;;;5041095;28;20631;-85
2022/07/22 12:40:24;;;;;;;5.47;4.97;;;;;;;;;;5052207;28;20204;-86
2022/07/22 12:43:28;;;;;;;6.05;5.18;;;;;;;;;;5040129;28;20231;-86
2022/07/22 12:46:32;;;;;;;5.90;5.30;;;;;;;;;;5032080;28;20208;-86
2022/07/22 12:49:36;;;;;;;6.75;5.68;;;;;;;;;;5029228;28;20200;-86
2022/07/22 12:52:40;;;;;;;7.82;5.60;;;;;;;;;;5021525;28;20216;-86
2022/07/22 12:55:46;;;;;;;6.40;5.63;;;;;;;;;;5021040;28;20181;-86
2022/07/22 12:58:50;;;;;;;5.93;5.30;;;;;;;;;;5014073;28;20177;-86
2022/07/22 13:01:54;;;;;;;5.75;5.15;;;;;;;;;;5040644;28;20208;-86
2022/07/22 13:04:58;;;;;;;7.72;5.22;;;;;;;;;;5037825;28;20192;-86
2022/07/22 13:08:03;;;;;;;6.03;5.25;;;;;;;;;;5039189;28;20188;-85
2022/07/22 13:11:07;;;;;;;6.65;5.80;;;;;;;;;;5030495;28;20177;-86
2022/07/22 13:14:13;;;;;;;7.45;5.65;;;;;;;;;;5041247;28;20184;-86
2022/07/22 13:17:19;;;;;;;7.50;4.95;;;;;;;;;;5031979;28;20185;-86
2022/07/22 13:20:23;;;;;;;5.63;5.07;;;;;;;;;;5043546;28;20524;-86
2022/07/22 13:23:27;;;;;;;8.60;4.93;;;;;;;;;;5040378;28;20239;-86
2022/07/22 13:26:32;;;;;;;6.47;5.43;;;;;;;;;;5030946;28;20193;-86
2022/07/22 13:29:36;;;;;;;6.55;5.22;;;;;;;;;;5043795;28;20278;-86
2022/07/22 13:32:40;;;;;;;5.57;5.05;;;;;;;;;;5043607;28;20216;-86
2022/07/22 13:35:44;;;;;;;6.57;4.85;;;;;;;;;;5055370;28;20199;-86
2022/07/22 13:38:51;;;;;;;7.18;4.60;;;;;;;;;;5055112;28;20200;-86
2022/07/22 13:41:54;;;;;;;5.18;4.68;;;;;;;;;;5024413;28;20205;-86
2022/07/22 13:44:58;;;;;;;5.15;4.65;;;;;;;;;;5040860;28;20531;-86
2022/07/22 13:48:02;;;;;;;7.53;5.47;;;;;;;;;;5055373;28;20536;-86
2022/07/22 13:51:07;;;;;;;5.35;4.78;;;;;;;;;;5040484;28;20631;-86
2022/07/22 13:54:11;;;;;;;5.85;4.88;;;;;;;;;;5028670;28;20185;-86
2022/07/22 13:57:16;;;;;;;5.50;5.00;;;;;;;;;;5043431;28;20196;-86
2022/07/22 14:00:20;;;;;;;5.13;4.72;;;;;;;;;;5037213;28;20185;-86
2022/07/22 14:03:24;;;;;;;6.72;5.03;;;;;;;;;;5034942;28;20229;-86
2022/07/22 14:06:28;;;;;;;5.20;4.70;;;;;;;;;;5033186;28;20650;-86
2022/07/22 14:09:32;;;;;;;7.72;5.18;;;;;;;;;;5043063;28;20192;-86
2022/07/22 14:12:37;;;;;;;7.15;4.93;;;;;;;;;;5045841;28;20213;-86
2022/07/22 14:15:41;;;;;;;5.03;4.55;;;;;;;;;;5023685;28;20181;-86
2022/07/22 14:18:45;;;;;;;6.10;5.03;;;;;;;;;;5042971;28;20184;-86
2022/07/22 14:21:49;;;;;;;5.53;4.93;;;;;;;;;;5043263;28;20204;-86
2022/07/22 14:24:53;;;;;;;6.68;5.60;;;;;;;;;;5043301;28;20218;-86
2022/07/22 14:27:57;;;;;;;6.68;5.18;;;;;;;;;;5053801;28;20188;-86
2022/07/22 14:31:01;;;;;;;6.05;4.97;;;;;;;;;;5043528;28;20185;-86
2022/07/22 14:34:05;;;;;;;6.28;4.80;;;;;;;;;;5035555;28;20212;-86
2022/07/22 14:37:10;;;;;;;5.18;4.68;;;;;;;;;;5038212;28;20173;-85
2022/07/22 14:40:14;;;;;;;5.53;5.03;;;;;;;;;;5036099;28;20181;-86
2022/07/22 14:43:18;;;;;;;7.35;4.70;;;;;;;;;;5041555;28;20220;-86
2022/07/22 14:46:22;;;;;;;5.50;5.00;;;;;;;;;;5030006;28;20200;-87
2022/07/22 14:49:26;;;;;;;5.47;4.97;;;;;;;;;;5065289;28;20184;-86
2022/07/22 14:52:31;;;;;;;5.15;4.72;;;;;;;;;;5033275;28;20204;-86
2022/07/22 14:55:35;;;;;;;5.63;4.65;;;;;;;;;;5038390;28;20184;-87
2022/07/22 14:58:39;;;;;;;6.43;4.70;;;;;;;;;;5032910;28;20184;-86
2022/07/22 15:01:43;;;;;;;15.73;5.85;;;;;;;;;;5042159;28;20200;-87
2022/07/22 15:04:47;;;;;;;5.22;4.72;;;;;;;;;;5041657;28;20196;-87
2022/07/22 15:07:51;;;;;;;8.80;4.60;;;;;;;;;;5033777;28;20193;-87
2022/07/22 15:10:56;;;;;;;7.80;5.20;;;;;;;;;;5033901;28;20628;-88
2022/07/22 15:14:00;;;;;;;5.63;5.07;;;;;;;;;;5060749;23;20228;-88
2022/07/22 15:17:04;;;;;;;6.68;5.22;;;;;;;;;;5022257;28;20197;-88
2022/07/22 15:20:08;;;;;;;6.22;5.10;;;;;;;;;;4999945;28;20188;-88
2022/07/22 15:23:13;;;;;;;5.50;4.95;;;;;;;;;;5024582;28;20237;-88
2022/07/22 15:26:17;;;;;;;6.20;4.85;;;;;;;;;;5021894;28;20658;-88
2022/07/22 15:29:21;;;;;;;8.68;5.15;;;;;;;;;;5011273;28;20173;-89
2022/07/22 15:32:25;;;;;;;5.35;4.88;;;;;;;;;;5033995;28;20197;-88
2022/07/22 15:35:29;;;;;;;5.82;5.00;;;;;;;;;;5011452;28;20200;-88
2022/07/22 15:38:34;;;;;;;6.68;4.95;;;;;;;;;;5013239;28;20181;-88
2022/07/22 15:41:39;;;;;;;5.63;5.00;;;;;;;;;;5011216;28;20190;-88
2022/07/22 15:44:43;;;;;;;10.40;5.35;;;;;;;;;;5033797;28;20177;-87
2022/07/22 15:47:48;;;;;;;6.90;4.80;;;;;;;;;;5022309;28;20498;-88
2022/07/22 15:50:53;;;;;;;5.60;5.10;;;;;;;;;;5013454;28;20190;-89
2022/07/22 15:53:57;;;;;;;6.68;5.30;;;;;;;;;;5021289;28;20221;-87
2022/07/22 16:00:24;;;;;;;6.43;5.03;;;;;;;;;;5033808;28;20535;-87
2022/07/22 16:03:27;;;;;;;6.55;5.13;;;;;;;;;;5010203;28;20224;-87
2022/07/22 16:06:32;;;;;;;5.82;5.18;;;;;;;;;;5024342;28;20185;-86
2022/07/22 16:09:36;;;;;;;5.38;4.88;;;;;;;;;;5033958;28;20192;-87
2022/07/22 16:12:40;;;;;;;5.90;5.03;;;;;;;;;;5003351;28;20228;-86
2022/07/22 16:15:45;;;;;;;5.50;5.00;;;;;;;;;;5033423;28;20181;-87
2022/07/22 16:18:49;;;;;;;6.10;4.90;;;;;;;;;;5010696;28;20193;-86
2022/07/22 16:21:53;;;;;;;6.40;5.05;;;;;;;;;;5011083;28;20200;-86
2022/07/22 16:24:57;;;;;;;8.20;5.00;;;;;;;;;;5037463;28;20201;-86
2022/07/22 16:28:01;;;;;;;6.32;5.63;;;;;;;;;;5016661;28;20193;-86
2022/07/22 16:31:05;;;;;;;6.55;5.22;;;;;;;;;;5010914;28;20173;-86
2022/07/22 16:34:09;;;;;;;9.50;5.65;;;;;;;;;;5032936;28;20221;-86
2022/07/22 16:37:13;;;;;;;7.13;5.28;;;;;;;;;;5025522;28;20193;-86
2022/07/22 16:40:18;;;;;;;5.50;4.95;;;;;;;;;;5010328;28;20201;-86
2022/07/22 16:43:26;;;;;;;6.70;5.35;;;;;;;;;;5001744;28;20229;-86
2022/07/22 16:46:30;;;;;;;7.57;5.40;;;;;;;;;;5011960;28;20189;-86
2022/07/22 16:49:44;;;;;;;8.25;5.80;;;;;;;;;;5010574;28;20177;-89
2022/07/22 16:52:51;;;;;;;7.30;6.35;;;;;;;;;;5021665;28;20213;-87
2022/07/22 16:55:55;;;;;;;8.82;5.88;;;;;;;;;;5032498;28;20545;-86
2022/07/22 16:58:59;;;;;;;6.55;5.60;;;;;;;;;;5001825;28;20197;-86
2022/07/22 17:02:03;;;;;;;6.85;5.35;;;;;;;;;;5041927;28;20193;-86
2022/07/22 17:05:08;;;;;;;11.45;5.80;;;;;;;;;;5011147;28;20638;-86
2022/07/22 17:08:12;;;;;;;6.55;5.10;;;;;;;;;;5013421;28;20204;-86
2022/07/22 17:11:16;;;;;;;5.90;5.38;;;;;;;;;;5005212;28;20193;-86
2022/07/22 17:14:20;;;;;;;8.00;5.60;;;;;;;;;;5027795;28;20225;-86
2022/07/22 17:17:24;;;;;;;7.53;5.25;;;;;;;;;;5035987;28;20185;-86
2022/07/22 17:20:28;;;;;;;5.47;4.85;;;;;;;;;;5036458;28;20180;-86
2022/07/22 17:23:32;;;;;;;9.02;5.25;;;;;;;;;;5014204;28;20233;-86
2022/07/22 17:26:36;;;;;;;5.93;5.22;;;;;;;;;;5014383;28;20626;-87
2022/07/22 17:29:40;;;;;;;6.88;5.53;;;;;;;;;;5014276;28;20559;-86
2022/07/22 17:32:44;;;;;;;8.07;5.45;;;;;;;;;;5005137;28;20225;-86
2022/07/22 17:35:49;;;;;;;5.70;5.10;;;;;;;;;;4994624;28;20179;-86
2022/07/22 17:38:56;;;;;;;6.68;5.40;;;;;;;;;;5005263;28;20184;-86
2022/07/22 17:42:01;;;;;;;5.95;5.45;;;;;;;;;;5008216;28;20189;-86
2022/07/22 17:45:06;;;;;;;5.63;4.65;;;;;;;;;;5019799;28;20188;-86
2022/07/22 17:48:10;;;;;;;6.57;5.25;;;;;;;;;;5035705;28;20199;-86
2022/07/22 17:51:14;;;;;;;6.13;5.35;;;;;;;;;;5035539;28;20211;-86
2022/07/22 17:54:19;;;;;;;7.00;5.47;;;;;;;;;;5035347;28;20689;-86
2022/07/22 17:57:24;;;;;;;5.63;5.00;;;;;;;;;;5023939;28;20195;-86
2022/07/22 18:00:30;;;;;;;8.07;5.43;;;;;;;;;;5027152;28;20182;-86
2022/07/22 18:03:34;;;;;;;6.35;5.75;;;;;;;;;;5012865;28;20559;-87
2022/07/22 18:06:42;;;;;;;6.68;5.38;;;;;;;;;;5034761;28;20236;-86
2022/07/22 18:09:46;;;;;;;6.30;5.70;;;;;;;;;;5004678;28;20177;-87
2022/07/22 18:12:58;;;;;;;6.25;5.65;;;;;;;;;;5014996;28;20237;-87
2022/07/22 18:16:05;;;;;;;6.85;5.03;;;;;;;;;;5015701;28;20178;-87
2022/07/22 18:19:09;;;;;;;5.90;4.90;;;;;;;;;;4998803;28;20199;-86
2022/07/22 18:22:13;;;;;;;7.72;4.97;;;;;;;;;;5013103;28;20184;-86
2022/07/22 18:25:17;;;;;;;11.88;5.07;;;;;;;;;;5023229;28;20181;-86